Flight Track Log - Related Links

Times and Time Zones

All times are in EDT time to prevent confusion due to time zone crossing. See the SWA2608 flight status page for this flight to view local times or setup timezone preferences in your user account.

Time Position Orientation Groundspeed Altitude Reporting Facility
EDT Latitude Longitude Course Direction KTS MPH feet Rate Location/Type
Wed 10:09:11 PM 35.0419 -106.5822 77° East 148 170 6,300  Level Albuquerque Center
Wed 10:10:18 PM 35.0547 -106.5147 77° East 246 283 7,800 1,714 Climbing Albuquerque Center
Wed 10:10:42 PM 35.0789 -106.5131 North 240 276 8,900 2,557 Climbing Albuquerque Center
Wed 10:11:19 PM 35.1094 -106.5406 324° Northwest 254 292 10,400 3,000 Climbing Albuquerque Center
Wed 10:12:20 PM 35.1611 -106.6111 312° West 274 315 13,800 3,366 Climbing Albuquerque Center
Wed 10:13:22 PM 35.2183 -106.6844 314° West 295 339 17,300 3,317 Climbing Albuquerque Center
Wed 10:14:23 PM 35.3064 -106.7369 334° Northwest 332 382 20,600 3,197 Climbing Albuquerque Center
Wed 10:15:24 PM 35.3975 -106.7919 334° Northwest 338 389 23,800 2,115 Climbing Albuquerque Center
Wed 10:16:25 PM 35.4894 -106.8403 337° Northwest 358 412 24,900 1,610 Climbing Albuquerque Center
Wed 10:17:27 PM 35.5933 -106.8939 337° Northwest 398 458 27,100 2,000 Climbing Albuquerque Center
Wed 10:18:28 PM 35.7083 -106.9547 337° Northwest 414 476 29,000 1,721 Climbing Albuquerque Center
Wed 10:19:29 PM 35.8181 -107.0125 337° Northwest 438 504 30,600 1,721 Climbing Albuquerque Center
Wed 10:20:30 PM 35.9297 -107.0706 337° Northwest 447 514 32,500 1,951 Climbing Albuquerque Center
Wed 10:21:32 PM 36.0456 -107.1317 337° Northwest 451 519 34,600 1,854 Climbing Albuquerque Center
Wed 10:22:33 PM 36.1675 -107.1967 337° Northwest 449 517 36,300 1,721 Climbing Albuquerque Center
Wed 10:23:34 PM 36.2953 -107.2644 337° Northwest 448 516 38,100 1,721 Climbing Albuquerque Center
Wed 10:24:35 PM 36.4047 -107.3236 336° Northwest 449 517 39,800 927 Climbing Albuquerque Center
Wed 10:25:37 PM 36.4928 -107.3689 338° Northwest 439 505 40,000 97 Climbing Denver Center
Wed 10:26:39 PM 36.6347 -107.4456 337° Northwest 439 505 40,000  Level Denver Center
Wed 10:27:41 PM 36.7597 -107.5128 337° Northwest 439 505 40,000  Level Denver Center
Wed 10:28:42 PM 36.8683 -107.5706 337° Northwest 441 507 40,000  Level Denver Center
Wed 10:29:44 PM 36.9753 -107.6297 336° Northwest 440 506 40,000  Level Denver Center
Wed 10:30:45 PM 37.1011 -107.6964 337° Northwest 441 507 40,000  Level Denver Center
Wed 10:31:47 PM 37.2081 -107.7553 336° Northwest 439 505 40,000  Level Denver Center
Wed 10:32:49 PM 37.3328 -107.8236 336° Northwest 439 505 40,000  Level Denver Center
Wed 10:33:50 PM 37.4403 -107.8822 337° Northwest 440 506 40,000  Level Denver Center
Wed 10:34:52 PM 37.5636 -107.9503 336° Northwest 433 498 40,000  Level Denver Center
Wed 10:35:53 PM 37.6686 -108.0072 337° Northwest 430 495 40,000  Level Denver Center
Wed 10:36:55 PM 37.7725 -108.0642 337° Northwest 426 490 40,000  Level Denver Center
Wed 10:37:56 PM 37.8969 -108.1372 335° Northwest 437 503 40,000  Level Denver Center
Wed 10:38:58 PM 38.0019 -108.1936 337° Northwest 431 496 40,000  Level Denver Center
Wed 10:39:59 PM 38.1169 -108.2581 336° Northwest 432 497 40,000  Level Denver Center
Wed 10:41:01 PM 38.2386 -108.3242 337° Northwest 427 491 40,000  Level Denver Center
Wed 10:42:02 PM 38.3436 -108.3836 336° Northwest 430 495 40,000  Level Denver Center
Wed 10:43:04 PM 38.4478 -108.4433 336° Northwest 430 495 40,000  Level Denver Center
Wed 10:44:06 PM 38.5486 -108.5514 320° Northwest 426 490 40,000  Level Denver Center
Wed 10:45:07 PM 38.6244 -108.6583 312° West 422 486 40,000  Level Denver Center
Wed 10:46:09 PM 38.7139 -108.7867 312° West 431 496 40,000  Level Denver Center
Wed 10:47:10 PM 38.7917 -108.8975 312° West 434 499 40,000  Level Denver Center
Wed 10:48:12 PM 38.8692 -109.0075 312° West 433 498 40,000  Level Denver Center
Wed 10:49:13 PM 38.9592 -109.1372 312° West 434 499 40,000  Level Denver Center
Wed 10:50:15 PM 39.0353 -109.2478 312° West 433 498 40,000  Level Denver Center
Wed 10:51:16 PM 39.1253 -109.3772 312° West 432 497 40,000  Level Denver Center
Wed 10:51:44 PM 39.1511 -109.4150 311° West 434 499 40,000  Level Salt Lake Center
Wed 10:52:45 PM 39.2414 -109.5453 312° West 435 501 40,000  Level Salt Lake Center
Wed 10:53:47 PM 39.3183 -109.6581 311° West 435 501 40,000  Level Salt Lake Center
Wed 10:54:33 PM 39.3703 -109.7325 312° West 436 502 40,000  Level Denver Center
Wed 10:54:49 PM 39.4092 -109.7911 311° West 439 505 40,000  Level Salt Lake Center
Wed 10:55:35 PM 39.4614 -109.8664 312° West 441 507 40,000  Level Denver Center
Wed 10:56:36 PM 39.5511 -110.0003 311° West 440 506 40,000  Level Denver Center
Wed 10:57:38 PM 39.6286 -110.1133 312° West 438 504 40,000  Level Denver Center
Wed 10:57:53 PM 39.6547 -110.1517 312° West 439 505 40,000  Level Salt Lake Center
Wed 10:58:55 PM 39.7306 -110.2642 311° West 434 499 40,000  Level Salt Lake Center
Wed 10:59:57 PM 39.8175 -110.3961 311° West 430 495 40,000  Level Salt Lake Center
Wed 11:00:58 PM 39.8928 -110.5086 311° West 431 496 40,000  Level Salt Lake Center
Wed 11:02:00 PM 39.9678 -110.6211 311° West 429 494 40,000  Level Salt Lake Center
Wed 11:03:01 PM 40.0550 -110.7531 311° West 429 494 40,000  Level Salt Lake Center
Wed 11:04:03 PM 40.1272 -110.8625 311° West 417 480 40,000  Level Salt Lake Center
Wed 11:05:04 PM 40.2011 -110.9772 310° West 420 483 40,000  Level Salt Lake Center
Wed 11:06:06 PM 40.2786 -111.0928 311° West 423 487 40,000  Level Salt Lake Center
Wed 11:07:07 PM 40.3708 -111.2331 311° West 424 488 40,000  Level Salt Lake Center
Wed 11:08:09 PM 40.4458 -111.3500 310° West 420 483 40,000  Level Salt Lake Center
Wed 11:09:10 PM 40.5206 -111.4656 310° West 416 479 40,000  Level Salt Lake Center
Wed 11:10:12 PM 40.5939 -111.5803 310° West 410 472 40,000  Level Salt Lake Center
Wed 11:11:13 PM 40.6692 -111.6972 310° West 414 476 40,000  Level Salt Lake Center
Wed 11:12:15 PM 40.7447 -111.8144 310° West 417 480 40,000  Level Salt Lake Center
Wed 11:13:16 PM 40.8203 -111.9331 310° West 418 481 40,000  Level Salt Lake Center
Wed 11:14:18 PM 40.8933 -112.0492 310° West 409 471 40,000  Level Salt Lake Center
Wed 11:15:19 PM 40.9703 -112.1603 313° West 405 466 40,000  Level Salt Lake Center
Wed 11:16:20 PM 41.0456 -112.2717 312° West 403 464 40,000  Level Salt Lake Center
Wed 11:17:22 PM 41.1217 -112.3847 312° West 411 473 40,000  Level Salt Lake Center
Wed 11:18:23 PM 41.2114 -112.5200 311° West 406 467 40,000  Level Salt Lake Center
Wed 11:19:25 PM 41.2872 -112.6328 312° West 408 470 40,000  Level Salt Lake Center
Wed 11:20:26 PM 41.3628 -112.7472 311° West 411 473 40,000  Level Salt Lake Center
Wed 11:21:27 PM 41.4389 -112.8619 312° West 415 478 40,000  Level Salt Lake Center
Wed 11:22:29 PM 41.5125 -112.9772 310° West 410 472 40,000  Level Salt Lake Center
Wed 11:23:30 PM 41.5872 -113.0931 311° West 410 472 40,000  Level Salt Lake Center
Wed 11:24:31 PM 41.6636 -113.2056 312° West 411 473 40,000  Level Salt Lake Center
Wed 11:25:33 PM 41.7364 -113.3181 311° West 403 464 40,000  Level Salt Lake Center
Wed 11:26:34 PM 41.8092 -113.4322 311° West 402 463 40,000  Level Salt Lake Center
Wed 11:27:35 PM 41.8814 -113.5425 311° West 396 456 40,000  Level Salt Lake Center
Wed 11:28:37 PM 41.9675 -113.6767 311° West 396 456 40,000  Level Salt Lake Center
Wed 11:29:38 PM 42.0378 -113.7886 310° West 393 452 40,000  Level Salt Lake Center
Wed 11:30:39 PM 42.1092 -113.8992 311° West 391 450 40,000  Level Salt Lake Center
Wed 11:31:40 PM 42.1819 -114.0103 311° West 395 455 40,000  Level Salt Lake Center
Wed 11:32:42 PM 42.2531 -114.1244 310° West 398 458 40,000  Level Salt Lake Center
Wed 11:33:43 PM 42.3250 -114.2428 309° West 409 471 40,000  Level Salt Lake Center
Wed 11:34:44 PM 42.3989 -114.3594 311° West 405 466 40,000  Level Salt Lake Center
Wed 11:35:45 PM 42.4711 -114.4764 310° West 405 466 40,000  Level Salt Lake Center
Wed 11:36:47 PM 42.5442 -114.5903 311° West 398 458 40,000  Level Salt Lake Center
Wed 11:37:48 PM 42.6328 -114.7278 311° West 402 463 40,000  Level Salt Lake Center
Wed 11:38:49 PM 42.6997 -114.8314 311° West 407 468 40,000  Level Salt Lake Center
Wed 11:39:50 PM 42.7814 -114.9586 311° West 399 459 40,000  Level Salt Lake Center
Wed 11:40:52 PM 42.8514 -115.0694 311° West 402 463 40,000  Level Salt Lake Center
Wed 11:42:00 PM 42.9346 -115.1973 311° West  Level FlightAware Approximate
Wed 11:42:54 PM 43.0039 -115.3072 311° West 400 460 40,000  Level Salt Lake Center
Wed 11:43:55 PM 43.0733 -115.4203 310° West 406 467 40,000  Level Salt Lake Center
Wed 11:44:56 PM 43.1561 -115.5494 311° West 403 464 40,000  Level Salt Lake Center
Wed 11:45:57 PM 43.2256 -115.6642 310° West 407 468 40,000  Level Salt Lake Center
Wed 11:46:58 PM 43.2964 -115.7775 311° West 409 471 40,000  Level Salt Lake Center
Wed 11:47:59 PM 43.3794 -115.9114 311° West 410 472 40,000  Level Salt Lake Center
Wed 11:49:01 PM 43.4511 -116.0283 310° West 416 479 40,000  Level Salt Lake Center
Wed 11:50:02 PM 43.5225 -116.1450 310° West 415 478 40,000  Level Salt Lake Center
Wed 11:51:03 PM 43.6156 -116.2711 316° Northwest 421 484 40,000  Level Salt Lake Center
Wed 11:52:04 PM 43.7003 -116.3733 319° Northwest 422 486 40,000  Level Salt Lake Center
Wed 11:53:05 PM 43.7847 -116.4772 318° Northwest 422 486 40,000  Level Salt Lake Center
Wed 11:54:06 PM 43.8831 -116.5972 319° Northwest 420 483 40,000  Level Salt Lake Center
Wed 11:55:07 PM 43.9647 -116.6997 318° Northwest 413 475 40,000  Level Salt Lake Center
Wed 11:56:08 PM 44.0464 -116.8008 318° Northwest 411 473 40,000  Level Salt Lake Center
Wed 11:57:09 PM 44.1425 -116.9203 318° Northwest 412 474 40,000  Level Salt Lake Center
Wed 11:58:11 PM 44.2242 -117.0211 319° Northwest 409 471 40,000  Level Salt Lake Center
Wed 11:59:12 PM 44.3056 -117.1239 318° Northwest 411 473 40,000  Level Salt Lake Center
Thu 12:00:13 AM 44.4006 -117.2442 318° Northwest 411 473 40,000  Level Salt Lake Center
Thu 12:01:14 AM 44.4819 -117.3475 318° Northwest 411 473 40,000  Level Salt Lake Center
Thu 12:02:15 AM 44.5781 -117.4700 318° Northwest 416 479 40,000  Level Salt Lake Center
Thu 12:03:16 AM 44.6589 -117.5731 318° Northwest 412 474 40,000  Level Salt Lake Center
Thu 12:04:17 AM 44.7408 -117.6789 317° Northwest 416 479 40,000  Level Salt Lake Center
Thu 12:05:18 AM 44.8372 -117.8022 318° Northwest 418 481 40,000  Level Salt Lake Center
Thu 12:05:57 AM 44.8922 -117.8750 317° Northwest 419 482 40,000  Level Seattle Center
Thu 12:06:57 AM 44.9739 -117.9800 318° Northwest 416 479 40,000  Level Seattle Center
Thu 12:07:58 AM 45.0569 -118.0869 318° Northwest 421 484 40,000  Level Seattle Center
Thu 12:08:21 AM 45.0917 -118.1344 316° Northwest 423 487 40,000  Level Salt Lake Center
Thu 12:08:59 AM 45.1436 -118.2014 318° Northwest 424 488 40,000  Level Seattle Center
Thu 12:09:59 AM 45.2286 -118.3133 317° Northwest 421 484 40,000  Level Seattle Center
Thu 12:11:00 AM 45.3142 -118.4256 317° Northwest 420 483 40,000  Level Seattle Center
Thu 12:12:01 AM 45.3989 -118.5392 317° Northwest 420 483 40,000  Level Seattle Center
Thu 12:13:01 AM 45.4828 -118.6511 317° Northwest 417 480 40,000  Level Seattle Center
Thu 12:14:02 AM 45.5669 -118.7628 317° Northwest 417 480 40,000  Level Seattle Center
Thu 12:15:02 AM 45.6500 -118.8769 316° Northwest 417 480 40,000  Level Seattle Center
Thu 12:16:03 AM 45.7319 -118.9967 314° West 423 487 40,000  Level Seattle Center
Thu 12:17:04 AM 45.8236 -119.1517 310° West 426 490 40,000  Level Seattle Center
Thu 12:18:04 AM 45.8978 -119.2781 310° West 420 483 40,000  Level Seattle Center
Thu 12:19:05 AM 45.9731 -119.4083 310° West 425 489 40,000  Level Seattle Center
Thu 12:20:05 AM 46.0483 -119.5372 310° West 424 488 40,000  Level Seattle Center
Thu 12:21:06 AM 46.1228 -119.6653 310° West 421 484 40,000  Level Seattle Center
Thu 12:22:07 AM 46.1981 -119.7925 311° West 419 482 40,000  Level Seattle Center
Thu 12:23:07 AM 46.2719 -119.9250 309° West 425 489 40,000  Level Seattle Center
Thu 12:24:08 AM 46.3472 -120.0553 310° West 424 488 40,000  Level Seattle Center
Thu 12:25:09 AM 46.4217 -120.1867 309° West 424 488 40,000  Level Seattle Center
Thu 12:26:09 AM 46.4961 -120.3161 310° West 422 486 40,000 -744 Level Seattle Center
Thu 12:27:10 AM 46.5689 -120.4469 309° West 419 482 38,500 -1,918 Descending Seattle Center
Thu 12:28:11 AM 46.6350 -120.5867 305° West 420 483 36,100 -2,479 Descending Seattle Center
Thu 12:29:11 AM 46.7006 -120.7217 305° West 411 473 33,500 -2,380 Descending Seattle Center
Thu 12:30:12 AM 46.7625 -120.8533 305° West 397 457 31,300 -1,967 Descending Seattle Center
Thu 12:31:13 AM 46.8228 -120.9792 305° West 381 438 29,500 -2,281 Descending Seattle Center
Thu 12:32:13 AM 46.8917 -121.1256 305° West 366 421 26,700 -2,380 Descending Seattle Center
Thu 12:33:14 AM 46.9469 -121.2444 304° West 359 413 24,700 -1,967 Descending Seattle Center
Thu 12:34:15 AM 47.0008 -121.3606 304° West 348 400 22,700 -1,953 Descending Seattle Center
Thu 12:34:40 AM 47.0258 -121.4106 306° West 344 396 21,900 -1,600 Descending Seattle Center
Thu 12:35:15 AM 47.0461 -121.4586 302° West 344 396 21,100 -2,066 Descending Seattle Center
Thu 12:35:41 AM 47.0819 -121.5292 307° West 343 395 19,800 -2,361 Descending Seattle Center
Thu 12:36:16 AM 47.1100 -121.5967 301° West 345 397 18,700 -1,909 Descending Seattle Center
Thu 12:36:47 AM 47.1397 -121.6567 306° West 348 400 17,700 -1,869 Descending Seattle Center
Thu 12:37:17 AM 47.1633 -121.7081 304° West 345 397 16,800 -2,073 Descending Seattle Center
Thu 12:37:42 AM 47.1864 -121.7581 304° West 333 383 15,800 -1,800 Descending Seattle Center
Thu 12:38:17 AM 47.2172 -121.8275 303° West 330 380 15,000 -787 Descending Seattle Center
Thu 12:38:43 AM 47.2358 -121.8711 302° West 324 373 15,000 -590 Level Seattle Center
Thu 12:39:18 AM 47.2664 -121.9358 305° West 319 367 14,400 -1,522 Descending Seattle Center
Thu 12:39:50 AM 47.2919 -121.9936 303° West 314 361 13,300 -1,574 Descending Seattle Center
Thu 12:40:19 AM 47.3150 -122.0417 305° West 314 361 12,800 -1,091 Descending Seattle Center
Thu 12:40:45 AM 47.3333 -122.0850 302° West 295 339 12,300 -1,000 Descending Seattle Center
Thu 12:41:19 AM 47.3561 -122.1336 305° West 270 311 11,800 -1,000 Descending Seattle Center
Thu 12:41:45 AM 47.3750 -122.1700 307° West 241 277 11,300 -1,082 Descending Seattle Center
Thu 12:42:20 AM 47.4136 -122.1719 358° North 252 290 10,700 -1,164 Descending Seattle Center
Thu 12:42:52 AM 47.4489 -122.1717 360° North 243 280 10,000 -1,180 Descending Seattle Center
Thu 12:43:21 AM 47.4758 -122.1722 359° North 245 282 9,500 -1,475 Descending Seattle Center
Thu 12:43:53 AM 47.5172 -122.1697 North 244 281 8,500 -1,600 Descending Seattle Center
Thu 12:44:21 AM 47.5531 -122.1692 North 243 280 7,900 -1,279 Descending Seattle Center
Thu 12:44:54 AM 47.5897 -122.1658 North 242 278 7,200 -1,377 Descending Seattle Center
Thu 12:45:22 AM 47.6197 -122.1653 North 241 277 6,500 -1,377 Descending Seattle Center
Thu 12:45:55 AM 47.6542 -122.1661 359° North 238 274 5,800 -1,180 Descending Seattle Center
Thu 12:46:23 AM 47.6717 -122.1956 311° West 231 266 5,300 -1,254 Descending Seattle Center
Thu 12:47:02 AM 47.6736 -122.2508 273° West 220 253 4,400 -1,200 Descending Seattle Center
Thu 12:47:23 AM 47.6711 -122.2856 264° West 222 255 4,100 -875 Descending Seattle Center
Thu 12:47:50 AM 47.6506 -122.3094 218° Southwest 215 247 3,700 -787 Descending Seattle Center
Thu 12:48:24 AM 47.6194 -122.3181 191° South 209 241 3,300 -787 Descending Seattle Center
Thu 12:48:51 AM 47.5947 -122.3175 179° South 197 227 2,900 -885 Descending Seattle Center
Thu 12:49:25 AM 47.5625 -122.3175 180° South 192 221 2,400 -873 Descending Seattle Center
Thu 12:49:46 AM 47.5481 -122.3169 179° South 175 201 2,100 -885 Descending Seattle Center
Thu 12:50:26 AM 47.5186 -122.3181 181° South 163 188 1,500 -787 Descending Seattle Center
Thu 12:50:47 AM 47.5086 -122.3192 184° South 142 163 1,300 -600 Descending Seattle Center
Thu 12:51:26 AM 47.4850 -122.3181 178° South 127 146 900 -636 Descending Seattle Center
Thu 12:51:53 AM 47.4703 -122.3172 178° South 117 135 600 -492 Descending Seattle Center
Thu 12:52:27 AM 47.4494 -122.3183 182° South 123 142 400 -353 Descending Seattle Center

Login

Don't have an account? Register now (free) for customized features, flight alerts, and more!